Time;durP1;ratioP1;P1;durP2;ratioP2;P2;SDS_P1;SDS_P2;PMS_P1;PMS_P2;Temp;Humidity;BMP_temperature;BMP_pressure;BME280_temperature;BME280_humidity;BME280_pressure;Samples;Min_cycle;Max_cycle;Signal;HPM_P1;HPM_P2
2022/08/26 00:00:57;;;;;;;;;;;;;;;;;;5069667;28;19920;-55
2022/08/26 00:03:23;;;;;;;;;;;;;;;;;;5077788;28;20319;-56
2022/08/26 00:05:51;;;;;;;;;;;;;;;;;;5072215;28;20368;-57
2022/08/26 00:08:16;;;;;;;;;;;;;;;;;;5072958;28;19916;-58
2022/08/26 00:10:41;;;;;;;;;;;;;;;;;;5082660;28;19927;-53
2022/08/26 00:13:06;;;;;;;;;;;;;;;;;;5075878;28;19931;-58
2022/08/26 00:15:32;;;;;;;;;;;;;;;;;;5077489;28;19924;-56
2022/08/26 00:17:57;;;;;;;;;;;;;;;;;;5074810;28;19916;-56
2022/08/26 00:20:23;;;;;;;;;;;;;;;;;;5072874;28;19927;-57
2022/08/26 00:22:48;;;;;;;;;;;;;;;;;;5079071;28;19916;-55
2022/08/26 00:25:13;;;;;;;;;;;;;;;;;;5075337;28;20006;-57
2022/08/26 00:27:38;;;;;;;;;;;;;;;;;;5061520;28;19943;-55
2022/08/26 00:30:03;;;;;;;;;;;;;;;;;;5089894;28;19967;-52
2022/08/26 00:32:29;;;;;;;;;;;;;;;;;;5074246;28;20832;-56
2022/08/26 00:34:54;;;;;;;;;;;;;;;;;;5079515;28;20373;-54
2022/08/26 00:37:19;;;;;;;;;;;;;;;;;;5073906;28;19916;-54
2022/08/26 00:39:44;;;;;;;;;;;;;;;;;;5079031;28;20409;-55
2022/08/26 00:42:10;;;;;;;;;;;;;;;;;;5072608;28;19952;-55
2022/08/26 00:44:35;;;;;;;;;;;;;;;;;;5074297;28;19923;-57
2022/08/26 00:47:00;;;;;;;;;;;;;;;;;;5079667;28;19920;-50
2022/08/26 00:49:25;;;;;;;;;;;;;;;;;;5073527;28;19975;-56
2022/08/26 00:51:51;;;;;;;;;;;;;;;;;;5079480;28;19916;-54
2022/08/26 00:54:16;;;;;;;;;;;;;;;;;;5074160;28;20992;-54
2022/08/26 00:56:41;;;;;;;;;;;;;;;;;;5075675;28;20359;-54
2022/08/26 00:59:07;;;;;;;;;;;;;;;;;;5079419;28;19920;-53
2022/08/26 01:01:32;;;;;;;;;;;;;;;;;;5073305;28;19927;-54
2022/08/26 01:03:57;;;;;;;;;;;;;;;;;;5079769;28;20439;-56
2022/08/26 01:06:22;;;;;;;;;;;;;;;;;;5071913;28;20565;-57
2022/08/26 01:08:48;;;;;;;;;;;;;;;;;;5073981;28;19973;-57
2022/08/26 01:11:13;;;;;;;;;;;;;;;;;;5078200;28;19920;-54
2022/08/26 01:13:39;;;;;;;;;;;;;;;;;;5072540;28;19916;-57
2022/08/26 01:16:04;;;;;;;;;;;;;;;;;;5078694;28;20329;-55
2022/08/26 01:18:30;;;;;;;;;;;;;;;;;;5074925;28;19923;-53
2022/08/26 01:20:55;;;;;;;;;;;;;;;;;;5072559;28;19962;-56
2022/08/26 01:23:20;;;;;;;;;;;;;;;;;;5078943;28;19916;-55
2022/08/26 01:25:46;;;;;;;;;;;;;;;;;;5073253;28;19987;-56
2022/08/26 01:28:11;;;;;;;;;;;;;;;;;;5079720;28;19942;-52
2022/08/26 01:30:36;;;;;;;;;;;;;;;;;;5074722;28;19956;-54
2022/08/26 01:33:01;;;;;;;;;;;;;;;;;;5076811;28;20000;-56
2022/08/26 01:35:26;;;;;;;;;;;;;;;;;;5082945;28;19921;-56
2022/08/26 01:37:52;;;;;;;;;;;;;;;;;;5077218;28;19920;-55
2022/08/26 01:40:17;;;;;;;;;;;;;;;;;;5082180;28;20462;-54
2022/08/26 01:42:42;;;;;;;;;;;;;;;;;;5079021;28;19920;-55
2022/08/26 01:45:07;;;;;;;;;;;;;;;;;;5079955;28;19919;-57
2022/08/26 01:47:33;;;;;;;;;;;;;;;;;;5085162;28;19940;-54
2022/08/26 01:49:58;;;;;;;;;;;;;;;;;;5077923;28;20072;-57
2022/08/26 01:52:23;;;;;;;;;;;;;;;;;;5083851;28;19916;-54
2022/08/26 01:54:49;;;;;;;;;;;;;;;;;;5079051;28;19990;-56
2022/08/26 01:57:14;;;;;;;;;;;;;;;;;;5079957;28;19920;-59
2022/08/26 01:59:39;;;;;;;;;;;;;;;;;;5085528;28;20396;-53
2022/08/26 02:02:04;;;;;;;;;;;;;;;;;;5078281;28;20314;-57
2022/08/26 02:04:30;;;;;;;;;;;;;;;;;;5084764;28;19923;-51
2022/08/26 02:06:55;;;;;;;;;;;;;;;;;;5079188;28;19920;-57
2022/08/26 02:09:20;;;;;;;;;;;;;;;;;;5080304;28;20189;-54
2022/08/26 02:11:51;;;;;;;;;;;;;;;;;;5085859;28;19916;-56
2022/08/26 02:14:16;;;;;;;;;;;;;;;;;;5081547;28;19912;-55
2022/08/26 02:16:42;;;;;;;;;;;;;;;;;;5086241;28;19916;-52
2022/08/26 02:19:07;;;;;;;;;;;;;;;;;;5078598;28;20030;-55
2022/08/26 02:21:32;;;;;;;;;;;;;;;;;;5079023;28;20387;-53
2022/08/26 02:23:57;;;;;;;;;;;;;;;;;;5084820;28;19916;-54
2022/08/26 02:26:22;;;;;;;;;;;;;;;;;;5078398;28;19967;-53
2022/08/26 02:28:47;;;;;;;;;;;;;;;;;;5084991;28;19928;-54
2022/08/26 02:31:13;;;;;;;;;;;;;;;;;;5078673;28;19924;-55
2022/08/26 02:33:38;;;;;;;;;;;;;;;;;;5075680;28;20368;-55
2022/08/26 02:36:04;;;;;;;;;;;;;;;;;;5084477;28;19916;-57
2022/08/26 02:38:32;;;;;;;;;;;;;;;;;;5076999;28;19920;-56
2022/08/26 02:40:57;;;;;;;;;;;;;;;;;;5084612;28;19916;-54
2022/08/26 02:43:22;;;;;;;;;;;;;;;;;;5077206;28;19916;-51
2022/08/26 02:45:47;;;;;;;;;;;;;;;;;;5077937;28;20315;-56
2022/08/26 02:48:13;;;;;;;;;;;;;;;;;;5083102;28;20002;-55
2022/08/26 02:50:38;;;;;;;;;;;;;;;;;;5077693;28;19927;-54
2022/08/26 02:53:03;;;;;;;;;;;;;;;;;;5083216;28;19916;-53
2022/08/26 02:55:28;;;;;;;;;;;;;;;;;;5076601;28;19916;-54
2022/08/26 02:57:53;;;;;;;;;;;;;;;;;;5076132;28;19923;-51
2022/08/26 03:00:19;;;;;;;;;;;;;;;;;;5079498;28;19927;-55
2022/08/26 03:02:44;;;;;;;;;;;;;;;;;;5078077;28;19951;-56
2022/08/26 03:05:09;;;;;;;;;;;;;;;;;;5080436;28;19950;-55
2022/08/26 03:07:34;;;;;;;;;;;;;;;;;;5075447;28;19966;-52
2022/08/26 03:10:00;;;;;;;;;;;;;;;;;;5075123;28;20789;-56
2022/08/26 03:12:25;;;;;;;;;;;;;;;;;;5078604;28;20856;-52
2022/08/26 03:14:50;;;;;;;;;;;;;;;;;;5076608;28;20283;-55
2022/08/26 03:17:15;;;;;;;;;;;;;;;;;;5081030;28;19916;-51
2022/08/26 03:19:40;;;;;;;;;;;;;;;;;;5076208;28;19962;-57
2022/08/26 03:22:06;;;;;;;;;;;;;;;;;;5075971;28;19916;-55
2022/08/26 03:24:31;;;;;;;;;;;;;;;;;;5080847;28;19916;-54
2022/08/26 03:26:56;;;;;;;;;;;;;;;;;;5075391;28;19919;-57
2022/08/26 03:32:05;;;;;;;;;;;;;;;;;;5078367;28;20548;-52
2022/08/26 03:34:31;;;;;;;;;;;;;;;;;;5076034;28;20011;-54
2022/08/26 03:36:56;;;;;;;;;;;;;;;;;;5081272;28;19978;-51
2022/08/26 03:39:21;;;;;;;;;;;;;;;;;;5074707;28;20353;-53
2022/08/26 03:41:46;;;;;;;;;;;;;;;;;;5077474;28;19970;-58
2022/08/26 03:44:11;;;;;;;;;;;;;;;;;;5076838;28;20674;-54
2022/08/26 03:46:37;;;;;;;;;;;;;;;;;;5073580;28;19950;-56
2022/08/26 03:49:04;;;;;;;;;;;;;;;;;;5080575;28;19995;-55
2022/08/26 03:51:30;;;;;;;;;;;;;;;;;;5074402;28;19924;-53
2022/08/26 03:53:55;;;;;;;;;;;;;;;;;;5074827;28;19922;-52
2022/08/26 03:56:20;;;;;;;;;;;;;;;;;;5079682;28;19916;-54
2022/08/26 03:58:46;;;;;;;;;;;;;;;;;;5075496;28;19927;-52
2022/08/26 04:01:11;;;;;;;;;;;;;;;;;;5080449;28;20359;-53
2022/08/26 04:06:20;;;;;;;;;;;;;;;;;;5074583;28;19920;-52
2022/08/26 04:08:45;;;;;;;;;;;;;;;;;;5077937;28;19916;-58
2022/08/26 04:11:10;;;;;;;;;;;;;;;;;;5086811;28;20451;-52
2022/08/26 04:13:36;;;;;;;;;;;;;;;;;;5079990;28;19966;-53
2022/08/26 04:16:01;;;;;;;;;;;;;;;;;;5074178;28;19969;-55
2022/08/26 04:18:26;;;;;;;;;;;;;;;;;;5072815;28;20074;-56
2022/08/26 04:20:52;;;;;;;;;;;;;;;;;;5080831;28;19926;-57
2022/08/26 04:23:17;;;;;;;;;;;;;;;;;;5074143;28;20257;-55
2022/08/26 04:25:42;;;;;;;;;;;;;;;;;;5080328;28;19916;-56
2022/08/26 04:28:07;;;;;;;;;;;;;;;;;;5073900;28;19950;-56
2022/08/26 04:30:33;;;;;;;;;;;;;;;;;;5072863;28;19973;-55
2022/08/26 04:32:58;;;;;;;;;;;;;;;;;;5080821;28;20303;-56
2022/08/26 04:35:23;;;;;;;;;;;;;;;;;;5072843;28;19920;-54
2022/08/26 04:37:49;;;;;;;;;;;;;;;;;;5093546;28;19916;-52
2022/08/26 04:40:14;;;;;;;;;;;;;;;;;;5071539;28;19916;-55
2022/08/26 04:42:39;;;;;;;;;;;;;;;;;;5074667;28;19916;-56
2022/08/26 04:45:04;;;;;;;;;;;;;;;;;;5078638;28;19960;-55
2022/08/26 04:47:30;;;;;;;;;;;;;;;;;;5088007;28;19924;-55
2022/08/26 04:49:55;;;;;;;;;;;;;;;;;;5077313;28;19916;-53
2022/08/26 04:52:20;;;;;;;;;;;;;;;;;;5073421;28;19923;-53
2022/08/26 04:54:46;;;;;;;;;;;;;;;;;;5075312;28;19969;-53
2022/08/26 04:57:11;;;;;;;;;;;;;;;;;;5080251;28;19994;-54
2022/08/26 04:59:36;;;;;;;;;;;;;;;;;;5075501;28;19916;-54
2022/08/26 05:02:02;;;;;;;;;;;;;;;;;;5079816;28;19956;-53
2022/08/26 05:04:27;;;;;;;;;;;;;;;;;;5070768;28;19923;-55
2022/08/26 05:06:53;;;;;;;;;;;;;;;;;;5087231;27;19923;-57
2022/08/26 05:09:18;;;;;;;;;;;;;;;;;;5079906;28;20536;-51
2022/08/26 05:11:44;;;;;;;;;;;;;;;;;;5075500;28;19924;-57
2022/08/26 05:14:10;;;;;;;;;;;;;;;;;;5078254;28;19962;-51
2022/08/26 05:16:35;;;;;;;;;;;;;;;;;;5077129;28;19943;-56
2022/08/26 05:19:00;;;;;;;;;;;;;;;;;;5077782;28;19975;-55
2022/08/26 05:21:25;;;;;;;;;;;;;;;;;;5083161;28;20288;-55
2022/08/26 05:23:50;;;;;;;;;;;;;;;;;;5078227;28;20379;-54
2022/08/26 05:26:18;;;;;;;;;;;;;;;;;;5085133;28;19927;-56
2022/08/26 05:28:43;;;;;;;;;;;;;;;;;;5076285;28;19924;-57
2022/08/26 05:31:08;;;;;;;;;;;;;;;;;;5076114;28;19916;-55
2022/08/26 05:33:34;;;;;;;;;;;;;;;;;;5082246;28;19923;-57
2022/08/26 05:35:59;;;;;;;;;;;;;;;;;;5078148;28;19923;-55
2022/08/26 05:38:24;;;;;;;;;;;;;;;;;;5083928;28;19923;-56
2022/08/26 05:40:49;;;;;;;;;;;;;;;;;;5074379;28;20385;-56
2022/08/26 05:43:15;;;;;;;;;;;;;;;;;;5076153;28;19993;-54
2022/08/26 05:45:40;;;;;;;;;;;;;;;;;;5082544;28;20030;-57
2022/08/26 05:48:08;;;;;;;;;;;;;;;;;;5077494;28;20431;-56
2022/08/26 05:50:33;;;;;;;;;;;;;;;;;;5082871;28;19923;-54
2022/08/26 05:52:59;;;;;;;;;;;;;;;;;;5076998;28;19916;-54
2022/08/26 05:55:24;;;;;;;;;;;;;;;;;;5074863;28;19916;-57
2022/08/26 05:57:49;;;;;;;;;;;;;;;;;;5076559;28;19981;-53
2022/08/26 06:00:15;;;;;;;;;;;;;;;;;;5069394;28;19946;-56
2022/08/26 06:02:40;;;;;;;;;;;;;;;;;;5074124;28;19916;-58
2022/08/26 06:05:05;;;;;;;;;;;;;;;;;;5084650;28;19916;-57
2022/08/26 06:10:14;;;;;;;;;;;;;;;;;;5072537;28;19923;-58
2022/08/26 06:12:40;;;;;;;;;;;;;;;;;;5067063;28;19920;-56
2022/08/26 06:15:05;;;;;;;;;;;;;;;;;;5072828;28;19928;-54
2022/08/26 06:17:30;;;;;;;;;;;;;;;;;;5073302;28;19920;-57
2022/08/26 06:19:55;;;;;;;;;;;;;;;;;;5074349;28;20011;-56
2022/08/26 06:27:49;;;;;;;;;;;;;;;;;;5076810;28;20411;-58
2022/08/26 06:30:14;;;;;;;;;;;;;;;;;;5077270;28;19928;-58
2022/08/26 06:32:40;;;;;;;;;;;;;;;;;;5077444;28;19916;-56
2022/08/26 06:35:05;;;;;;;;;;;;;;;;;;5090682;28;20020;-58
2022/08/26 06:37:30;;;;;;;;;;;;;;;;;;5088341;27;20564;-58
2022/08/26 06:39:58;;;;;;;;;;;;;;;;;;5076221;28;19923;-56
2022/08/26 06:42:23;;;;;;;;;;;;;;;;;;5075939;28;19920;-57
2022/08/26 06:44:49;;;;;;;;;;;;;;;;;;5076030;28;20285;-57
2022/08/26 06:47:14;;;;;;;;;;;;;;;;;;5076992;28;19920;-57
2022/08/26 06:49:39;;;;;;;;;;;;;;;;;;5075510;28;20646;-57
2022/08/26 06:52:05;;;;;;;;;;;;;;;;;;5076143;28;20022;-57
2022/08/26 06:54:30;;;;;;;;;;;;;;;;;;5075346;28;20650;-56
2022/08/26 06:56:56;;;;;;;;;;;;;;;;;;5076133;28;19916;-58
2022/08/26 06:59:21;;;;;;;;;;;;;;;;;;5072060;28;19916;-58
2022/08/26 07:01:46;;;;;;;;;;;;;;;;;;5075741;28;19915;-58
2022/08/26 07:04:13;;;;;;;;;;;;;;;;;;5074917;28;20580;-58
2022/08/26 07:06:39;;;;;;;;;;;;;;;;;;5089780;28;19916;-58
2022/08/26 07:09:04;;;;;;;;;;;;;;;;;;5088425;28;19920;-58
2022/08/26 07:11:29;;;;;;;;;;;;;;;;;;5070882;28;20006;-57
2022/08/26 07:13:54;;;;;;;;;;;;;;;;;;5054947;28;19926;-57
2022/08/26 07:16:20;;;;;;;;;;;;;;;;;;5053760;28;20236;-60
2022/08/26 07:18:47;;;;;;;;;;;;;;;;;;5053393;28;19941;-59
2022/08/26 07:21:12;;;;;;;;;;;;;;;;;;5052788;28;19927;-61
2022/08/26 07:23:37;;;;;;;;;;;;;;;;;;5053903;28;19963;-59
2022/08/26 07:26:02;;;;;;;;;;;;;;;;;;5052461;28;19923;-59
2022/08/26 07:28:28;;;;;;;;;;;;;;;;;;5039330;28;19926;-60
2022/08/26 07:30:53;;;;;;;;;;;;;;;;;;5040810;28;20884;-59
2022/08/26 07:33:18;;;;;;;;;;;;;;;;;;5053172;28;19920;-59
2022/08/26 07:35:43;;;;;;;;;;;;;;;;;;5054408;28;19935;-59
2022/08/26 07:38:08;;;;;;;;;;;;;;;;;;5054608;28;19916;-59
2022/08/26 07:40:34;;;;;;;;;;;;;;;;;;5053032;28;19921;-59
2022/08/26 07:42:59;;;;;;;;;;;;;;;;;;5056005;28;19923;-59
2022/08/26 07:45:25;;;;;;;;;;;;;;;;;;5055951;28;19916;-59
2022/08/26 07:47:50;;;;;;;;;;;;;;;;;;5054606;28;19920;-60
2022/08/26 07:50:18;;;;;;;;;;;;;;;;;;5037467;28;19927;-59
2022/08/26 07:52:46;;;;;;;;;;;;;;;;;;5051913;28;20635;-59
2022/08/26 07:55:11;;;;;;;;;;;;;;;;;;5053360;28;19924;-60
2022/08/26 07:57:36;;;;;;;;;;;;;;;;;;5052110;28;19917;-60
2022/08/26 08:00:02;;;;;;;;;;;;;;;;;;5052138;28;19916;-58
2022/08/26 08:02:37;;;;;;;;;;;;;;;;;;5041339;28;19916;-60
2022/08/26 08:05:02;;;;;;;;;;;;;;;;;;5052697;28;19982;-59
2022/08/26 08:07:27;;;;;;;;;;;;;;;;;;5037568;28;19921;-58
2022/08/26 08:09:52;;;;;;;;;;;;;;;;;;5052044;28;19928;-58
2022/08/26 08:12:18;;;;;;;;;;;;;;;;;;5053203;28;19982;-59
2022/08/26 08:14:45;;;;;;;;;;;;;;;;;;5051257;28;20694;-59
2022/08/26 08:17:12;;;;;;;;;;;;;;;;;;5051342;28;20227;-58
2022/08/26 08:19:37;;;;;;;;;;;;;;;;;;5052155;28;20003;-59
2022/08/26 08:22:05;;;;;;;;;;;;;;;;;;5052328;28;19916;-59
2022/08/26 08:24:32;;;;;;;;;;;;;;;;;;5052450;28;19923;-59
2022/08/26 08:26:57;;;;;;;;;;;;;;;;;;5052853;28;19977;-59
2022/08/26 08:29:23;;;;;;;;;;;;;;;;;;5052215;28;19924;-59
2022/08/26 08:31:48;;;;;;;;;;;;;;;;;;5050790;28;19959;-59
2022/08/26 08:34:13;;;;;;;;;;;;;;;;;;5053310;28;19917;-60
2022/08/26 08:36:39;;;;;;;;;;;;;;;;;;5052024;28;20424;-59
2022/08/26 08:39:04;;;;;;;;;;;;;;;;;;5053980;28;19920;-59
2022/08/26 08:41:30;;;;;;;;;;;;;;;;;;5054359;28;19922;-59
2022/08/26 08:43:55;;;;;;;;;;;;;;;;;;5052967;28;19943;-59
2022/08/26 08:46:20;;;;;;;;;;;;;;;;;;5054942;28;20882;-58
2022/08/26 08:48:45;;;;;;;;;;;;;;;;;;5053714;28;19981;-59
2022/08/26 08:51:12;;;;;;;;;;;;;;;;;;5053022;28;19917;-58
2022/08/26 08:53:37;;;;;;;;;;;;;;;;;;5052817;28;20489;-59
2022/08/26 08:56:03;;;;;;;;;;;;;;;;;;5053715;28;20365;-59
2022/08/26 08:58:28;;;;;;;;;;;;;;;;;;5054838;28;20004;-59
2022/08/26 09:00:53;;;;;;;;;;;;;;;;;;5052897;28;19922;-58
2022/08/26 09:03:18;;;;;;;;;;;;;;;;;;5035510;28;21644;-59
2022/08/26 09:05:43;;;;;;;;;;;;;;;;;;5052459;28;20764;-59
2022/08/26 09:08:09;;;;;;;;;;;;;;;;;;5040580;28;19920;-60
2022/08/26 09:10:34;;;;;;;;;;;;;;;;;;5054368;28;19931;-59
2022/08/26 09:12:59;;;;;;;;;;;;;;;;;;5068908;28;20548;-60
2022/08/26 09:15:25;;;;;;;;;;;;;;;;;;5072975;28;19931;-59
2022/08/26 09:17:50;;;;;;;;;;;;;;;;;;5074435;28;19916;-60
2022/08/26 09:20:16;;;;;;;;;;;;;;;;;;5072669;28;19976;-60
2022/08/26 09:22:42;;;;;;;;;;;;;;;;;;5070854;28;20275;-60
2022/08/26 09:25:08;;;;;;;;;;;;;;;;;;5070969;28;20562;-60
2022/08/26 09:27:33;;;;;;;;;;;;;;;;;;5074442;28;19942;-59
2022/08/26 09:29:58;;;;;;;;;;;;;;;;;;5071868;28;19920;-60
2022/08/26 09:32:23;;;;;;;;;;;;;;;;;;5070877;28;20122;-60
2022/08/26 09:34:48;;;;;;;;;;;;;;;;;;5075533;28;19923;-60
2022/08/26 09:37:14;;;;;;;;;;;;;;;;;;5071747;28;20014;-60
2022/08/26 09:39:39;;;;;;;;;;;;;;;;;;5070907;28;20478;-60
2022/08/26 09:42:04;;;;;;;;;;;;;;;;;;5068578;28;19920;-60
2022/08/26 09:44:32;;;;;;;;;;;;;;;;;;5070492;28;19920;-59
2022/08/26 09:46:57;;;;;;;;;;;;;;;;;;5073090;28;19951;-58
2022/08/26 09:49:23;;;;;;;;;;;;;;;;;;5073121;28;20667;-59
2022/08/26 09:51:48;;;;;;;;;;;;;;;;;;5072719;28;20655;-59
2022/08/26 09:54:13;;;;;;;;;;;;;;;;;;5076063;28;20561;-60
2022/08/26 09:56:38;;;;;;;;;;;;;;;;;;5091058;28;19912;-60
2022/08/26 09:59:03;;;;;;;;;;;;;;;;;;5075971;28;19920;-59
2022/08/26 10:01:29;;;;;;;;;;;;;;;;;;5072018;28;20588;-59
2022/08/26 10:03:54;;;;;;;;;;;;;;;;;;5075239;28;20031;-58
2022/08/26 10:06:19;;;;;;;;;;;;;;;;;;5076009;28;19927;-59
2022/08/26 10:08:44;;;;;;;;;;;;;;;;;;5072911;28;20023;-60
2022/08/26 10:11:09;;;;;;;;;;;;;;;;;;5073953;28;19989;-57
2022/08/26 10:13:35;;;;;;;;;;;;;;;;;;5077252;28;19916;-57
2022/08/26 10:16:00;;;;;;;;;;;;;;;;;;5076366;28;19956;-57
2022/08/26 10:18:25;;;;;;;;;;;;;;;;;;5077610;28;20617;-57
2022/08/26 10:20:51;;;;;;;;;;;;;;;;;;5074852;28;19960;-57
2022/08/26 10:23:16;;;;;;;;;;;;;;;;;;5070615;28;19947;-58
2022/08/26 10:25:42;;;;;;;;;;;;;;;;;;5073134;28;19917;-58
2022/08/26 10:28:07;;;;;;;;;;;;;;;;;;5076266;28;19920;-59
2022/08/26 10:30:32;;;;;;;;;;;;;;;;;;5076264;28;19920;-59
2022/08/26 10:32:57;;;;;;;;;;;;;;;;;;5076947;28;19968;-59
2022/08/26 10:35:22;;;;;;;;;;;;;;;;;;5074208;28;19920;-59
2022/08/26 10:37:48;;;;;;;;;;;;;;;;;;5061929;28;19969;-59
2022/08/26 10:40:13;;;;;;;;;;;;;;;;;;5074574;28;19943;-59
2022/08/26 10:42:38;;;;;;;;;;;;;;;;;;5075815;28;20475;-59
2022/08/26 10:45:03;;;;;;;;;;;;;;;;;;5075687;28;19916;-58
2022/08/26 10:47:29;;;;;;;;;;;;;;;;;;5075880;28;19919;-59
2022/08/26 10:49:54;;;;;;;;;;;;;;;;;;5074416;28;19963;-60
2022/08/26 10:52:19;;;;;;;;;;;;;;;;;;5074845;28;19919;-59
2022/08/26 10:54:44;;;;;;;;;;;;;;;;;;5074912;28;19920;-58
2022/08/26 10:57:10;;;;;;;;;;;;;;;;;;5074910;28;19917;-58
2022/08/26 10:59:35;;;;;;;;;;;;;;;;;;5077483;28;19955;-57
2022/08/26 11:02:00;;;;;;;;;;;;;;;;;;5075036;28;19916;-58
2022/08/26 11:04:25;;;;;;;;;;;;;;;;;;5074367;28;19923;-58
2022/08/26 11:06:51;;;;;;;;;;;;;;;;;;5074383;28;20561;-57
2022/08/26 11:09:16;;;;;;;;;;;;;;;;;;5075484;28;20486;-58
2022/08/26 11:11:41;;;;;;;;;;;;;;;;;;5074376;28;19994;-58
2022/08/26 11:14:06;;;;;;;;;;;;;;;;;;5061553;28;20440;-58
2022/08/26 11:16:32;;;;;;;;;;;;;;;;;;5075755;28;19912;-59
2022/08/26 11:18:57;;;;;;;;;;;;;;;;;;5076516;28;19913;-59
2022/08/26 11:21:22;;;;;;;;;;;;;;;;;;5075231;28;19920;-60
2022/08/26 11:23:47;;;;;;;;;;;;;;;;;;5075851;28;20285;-59
2022/08/26 11:26:12;;;;;;;;;;;;;;;;;;5073458;28;19959;-58
2022/08/26 11:28:38;;;;;;;;;;;;;;;;;;5057687;28;19920;-59
2022/08/26 11:31:04;;;;;;;;;;;;;;;;;;5074906;28;20215;-60
2022/08/26 11:33:29;;;;;;;;;;;;;;;;;;5074501;28;19923;-59
2022/08/26 11:35:54;;;;;;;;;;;;;;;;;;5076102;28;20597;-59
2022/08/26 11:38:22;;;;;;;;;;;;;;;;;;5075342;28;19920;-59
2022/08/26 11:40:48;;;;;;;;;;;;;;;;;;5073093;28;19993;-60
2022/08/26 11:43:13;;;;;;;;;;;;;;;;;;5072964;28;20416;-59
2022/08/26 11:45:38;;;;;;;;;;;;;;;;;;5073040;28;19977;-60
2022/08/26 11:48:03;;;;;;;;;;;;;;;;;;5073869;28;19973;-57
2022/08/26 11:50:28;;;;;;;;;;;;;;;;;;5074432;28;20029;-57
2022/08/26 11:52:54;;;;;;;;;;;;;;;;;;5074833;28;19916;-57
2022/08/26 11:55:19;;;;;;;;;;;;;;;;;;5073560;28;19916;-57
2022/08/26 11:57:44;;;;;;;;;;;;;;;;;;5074672;28;19974;-60
2022/08/26 12:00:13;;;;;;;;;;;;;;;;;;5074355;28;19912;-58
2022/08/26 12:02:38;;;;;;;;;;;;;;;;;;5074481;28;19912;-59
2022/08/26 12:05:03;;;;;;;;;;;;;;;;;;5074046;28;19927;-59
2022/08/26 12:07:28;;;;;;;;;;;;;;;;;;5074252;28;20521;-59
2022/08/26 12:09:54;;;;;;;;;;;;;;;;;;5073873;28;20387;-60
2022/08/26 12:12:19;;;;;;;;;;;;;;;;;;5062400;28;20537;-59
2022/08/26 12:14:44;;;;;;;;;;;;;;;;;;5055505;28;20428;-59
2022/08/26 12:17:10;;;;;;;;;;;;;;;;;;5029942;28;20680;-59
2022/08/26 12:19:35;;;;;;;;;;;;;;;;;;5031523;28;20388;-60
2022/08/26 12:22:00;;;;;;;;;;;;;;;;;;5036472;28;21812;-57
2022/08/26 12:24:25;;;;;;;;;;;;;;;;;;5033356;28;20018;-58
2022/08/26 12:26:51;;;;;;;;;;;;;;;;;;5049892;28;19921;-59
2022/08/26 12:29:16;;;;;;;;;;;;;;;;;;5046535;28;19925;-59
2022/08/26 12:31:41;;;;;;;;;;;;;;;;;;5048510;28;20415;-58
2022/08/26 12:34:06;;;;;;;;;;;;;;;;;;5047473;28;20564;-59
2022/08/26 12:36:31;;;;;;;;;;;;;;;;;;5049827;28;19947;-58
2022/08/26 12:38:57;;;;;;;;;;;;;;;;;;5056341;28;19923;-59
2022/08/26 12:41:22;;;;;;;;;;;;;;;;;;5050694;28;19921;-58
2022/08/26 12:43:47;;;;;;;;;;;;;;;;;;5056274;28;20022;-58
2022/08/26 12:46:14;;;;;;;;;;;;;;;;;;5046928;28;20463;-58
2022/08/26 12:48:39;;;;;;;;;;;;;;;;;;5050782;28;19927;-57
2022/08/26 12:51:04;;;;;;;;;;;;;;;;;;5057899;28;20153;-59
2022/08/26 12:53:29;;;;;;;;;;;;;;;;;;5052406;28;20025;-59
2022/08/26 12:55:54;;;;;;;;;;;;;;;;;;5057928;28;20338;-58
2022/08/26 12:58:20;;;;;;;;;;;;;;;;;;5053035;28;19951;-58
2022/08/26 13:00:46;;;;;;;;;;;;;;;;;;5051363;28;20634;-58
2022/08/26 13:03:11;;;;;;;;;;;;;;;;;;5056196;28;19995;-58
2022/08/26 13:05:36;;;;;;;;;;;;;;;;;;5050797;28;19916;-58
2022/08/26 13:08:02;;;;;;;;;;;;;;;;;;5056241;28;20728;-58
2022/08/26 13:10:27;;;;;;;;;;;;;;;;;;5054427;28;19998;-57
2022/08/26 13:12:54;;;;;;;;;;;;;;;;;;5068125;28;19920;-58
2022/08/26 13:15:19;;;;;;;;;;;;;;;;;;5079644;28;19966;-60
2022/08/26 13:17:44;;;;;;;;;;;;;;;;;;5076782;28;19916;-59
2022/08/26 13:20:09;;;;;;;;;;;;;;;;;;5078867;28;19916;-59
2022/08/26 13:22:35;;;;;;;;;;;;;;;;;;5073157;28;20418;-59
2022/08/26 13:25:00;;;;;;;;;;;;;;;;;;5072637;28;19923;-59
2022/08/26 13:27:26;;;;;;;;;;;;;;;;;;5077790;28;19980;-59
2022/08/26 13:29:51;;;;;;;;;;;;;;;;;;5076166;28;19930;-58
2022/08/26 13:32:16;;;;;;;;;;;;;;;;;;5082107;28;19916;-59
2022/08/26 13:34:42;;;;;;;;;;;;;;;;;;5076949;28;19916;-59
2022/08/26 13:37:07;;;;;;;;;;;;;;;;;;5078138;28;19916;-59
2022/08/26 13:39:32;;;;;;;;;;;;;;;;;;5082152;28;19923;-59
2022/08/26 13:41:58;;;;;;;;;;;;;;;;;;5089637;28;19959;-59
2022/08/26 13:44:23;;;;;;;;;;;;;;;;;;5081607;28;19916;-59
2022/08/26 13:46:48;;;;;;;;;;;;;;;;;;5077720;28;19920;-58
2022/08/26 13:49:13;;;;;;;;;;;;;;;;;;5075493;28;19974;-58
2022/08/26 13:51:39;;;;;;;;;;;;;;;;;;5080570;28;20308;-59
2022/08/26 13:54:04;;;;;;;;;;;;;;;;;;5075426;28;20644;-58
2022/08/26 13:56:29;;;;;;;;;;;;;;;;;;5082569;28;19923;-58
2022/08/26 13:58:55;;;;;;;;;;;;;;;;;;5072810;28;19947;-58
2022/08/26 14:01:20;;;;;;;;;;;;;;;;;;5078949;28;19912;-59
2022/08/26 14:03:45;;;;;;;;;;;;;;;;;;5082459;28;19920;-58
2022/08/26 14:06:10;;;;;;;;;;;;;;;;;;5079339;28;19920;-59
2022/08/26 14:08:36;;;;;;;;;;;;;;;;;;5081760;28;19931;-59
2022/08/26 14:11:01;;;;;;;;;;;;;;;;;;5082078;28;19916;-58
2022/08/26 14:13:26;;;;;;;;;;;;;;;;;;5083131;28;19916;-59
2022/08/26 14:15:51;;;;;;;;;;;;;;;;;;5081561;28;20312;-60
2022/08/26 14:18:19;;;;;;;;;;;;;;;;;;5083533;28;19923;-59
2022/08/26 14:20:45;;;;;;;;;;;;;;;;;;5083546;28;19927;-58
2022/08/26 14:23:10;;;;;;;;;;;;;;;;;;5082891;28;19912;-58
2022/08/26 14:25:35;;;;;;;;;;;;;;;;;;5082712;28;19920;-59
2022/08/26 14:28:00;;;;;;;;;;;;;;;;;;5083459;28;19927;-59
2022/08/26 14:30:25;;;;;;;;;;;;;;;;;;5083595;28;19924;-59
2022/08/26 14:32:51;;;;;;;;;;;;;;;;;;5083795;28;19916;-59
2022/08/26 14:35:16;;;;;;;;;;;;;;;;;;5082659;28;19916;-59
2022/08/26 14:37:41;;;;;;;;;;;;;;;;;;5080988;28;19923;-58
2022/08/26 14:40:06;;;;;;;;;;;;;;;;;;5083376;28;20015;-59
2022/08/26 14:42:32;;;;;;;;;;;;;;;;;;5081831;28;19923;-60
2022/08/26 14:44:57;;;;;;;;;;;;;;;;;;5083512;28;19916;-59
2022/08/26 14:47:22;;;;;;;;;;;;;;;;;;5081851;28;20047;-59
2022/08/26 14:49:47;;;;;;;;;;;;;;;;;;5083027;28;19924;-59
2022/08/26 14:52:12;;;;;;;;;;;;;;;;;;5081115;28;20570;-60
2022/08/26 14:54:38;;;;;;;;;;;;;;;;;;5081524;28;19916;-59
2022/08/26 14:57:03;;;;;;;;;;;;;;;;;;5084306;28;19912;-59
2022/08/26 14:59:28;;;;;;;;;;;;;;;;;;5084531;28;19916;-60
2022/08/26 15:01:54;;;;;;;;;;;;;;;;;;5083234;28;19924;-59
2022/08/26 15:04:19;;;;;;;;;;;;;;;;;;5083105;28;19951;-60
2022/08/26 15:06:45;;;;;;;;;;;;;;;;;;5085002;28;20431;-57
2022/08/26 15:09:10;;;;;;;;;;;;;;;;;;5084454;28;20466;-57
2022/08/26 15:11:35;;;;;;;;;;;;;;;;;;5081781;28;19923;-57
2022/08/26 15:14:01;;;;;;;;;;;;;;;;;;5082578;28;19920;-57
2022/08/26 15:16:26;;;;;;;;;;;;;;;;;;5080827;28;19920;-57
2022/08/26 15:18:51;;;;;;;;;;;;;;;;;;5079809;28;19923;-57
2022/08/26 15:21:17;;;;;;;;;;;;;;;;;;5080586;28;19955;-57
2022/08/26 15:23:42;;;;;;;;;;;;;;;;;;5081671;28;20588;-57
2022/08/26 15:26:08;;;;;;;;;;;;;;;;;;5082124;28;19923;-57
2022/08/26 15:28:33;;;;;;;;;;;;;;;;;;5082453;28;19920;-57
2022/08/26 15:30:59;;;;;;;;;;;;;;;;;;5082983;28;19951;-57
2022/08/26 15:33:24;;;;;;;;;;;;;;;;;;5083352;28;20327;-57
2022/08/26 15:35:49;;;;;;;;;;;;;;;;;;5083060;28;19999;-57
2022/08/26 15:38:14;;;;;;;;;;;;;;;;;;5082124;28;19923;-57
2022/08/26 15:40:40;;;;;;;;;;;;;;;;;;5082200;28;19916;-57
2022/08/26 15:43:05;;;;;;;;;;;;;;;;;;5084284;28;20007;-57
2022/08/26 15:45:31;;;;;;;;;;;;;;;;;;5083440;28;19916;-57
2022/08/26 15:47:56;;;;;;;;;;;;;;;;;;5077450;28;19930;-57
2022/08/26 15:50:24;;;;;;;;;;;;;;;;;;5081319;28;19927;-58
2022/08/26 15:52:49;;;;;;;;;;;;;;;;;;5081179;28;19916;-57
2022/08/26 15:55:14;;;;;;;;;;;;;;;;;;5083729;28;19952;-57
2022/08/26 15:57:39;;;;;;;;;;;;;;;;;;5095350;28;19956;-57
2022/08/26 16:00:04;;;;;;;;;;;;;;;;;;5080228;28;19915;-57
2022/08/26 16:02:36;;;;;;;;;;;;;;;;;;5082411;28;19920;-57
2022/08/26 16:05:02;;;;;;;;;;;;;;;;;;5081153;28;19979;-57
2022/08/26 16:07:27;;;;;;;;;;;;;;;;;;5083108;28;20406;-57
2022/08/26 16:09:53;;;;;;;;;;;;;;;;;;5080684;28;19978;-58
2022/08/26 16:12:21;;;;;;;;;;;;;;;;;;5077004;28;19932;-57
2022/08/26 16:14:50;;;;;;;;;;;;;;;;;;5080560;28;19927;-57
2022/08/26 16:17:15;;;;;;;;;;;;;;;;;;5080286;28;19977;-58
2022/08/26 16:19:40;;;;;;;;;;;;;;;;;;5079493;28;20019;-58
2022/08/26 16:22:07;;;;;;;;;;;;;;;;;;5080463;28;19920;-58
2022/08/26 16:24:33;;;;;;;;;;;;;;;;;;5078145;28;19940;-56
2022/08/26 16:26:58;;;;;;;;;;;;;;;;;;5081287;28;19966;-59
2022/08/26 16:29:23;;;;;;;;;;;;;;;;;;5080305;28;19927;-58
2022/08/26 16:31:52;;;;;;;;;;;;;;;;;;5080373;28;19955;-58
2022/08/26 16:34:17;;;;;;;;;;;;;;;;;;5080723;28;19973;-58
2022/08/26 16:36:42;;;;;;;;;;;;;;;;;;5079952;28;19924;-57
2022/08/26 16:39:07;;;;;;;;;;;;;;;;;;5080807;28;19973;-57
2022/08/26 16:41:33;;;;;;;;;;;;;;;;;;5079481;28;19916;-56
2022/08/26 16:43:58;;;;;;;;;;;;;;;;;;5094920;28;19999;-56
2022/08/26 16:46:24;;;;;;;;;;;;;;;;;;5080455;28;19942;-57